Terminal Aerodrome Forecast
Issued by NWS Wichita, KS

Home | Current Version | Previous Version | Text Only | Print | Product List | Glossary On
Versions: 1 2 3 4 5 6 7 8 9 10 11 12 13 14 15 16 17
000
FTUS43 KICT 051548 AAC
TAFICT
TAF AMD
KICT 051548Z 0516/0612 16012KT P6SM SKC
     FM051800 18017G25KT P6SM SCT250
     FM060000 16005KT P6SM BKN250
     FM060400 36018G25KT P6SM SCT250=

USA.gov is the U.S. government's official web portal to all federal, state and local government web resources and services.